createdAt,value
2022-12-23T00:28:51.878Z,638.00
2022-12-23T00:29:51.861Z,639.00
2022-12-23T00:30:51.816Z,641.00
2022-12-23T00:31:51.836Z,642.00
2022-12-23T00:32:51.794Z,643.00
2022-12-23T00:33:51.765Z,645.00
2022-12-23T00:34:51.746Z,641.00
2022-12-23T00:35:51.808Z,640.00
2022-12-23T00:36:51.719Z,640.00
2022-12-23T00:37:51.720Z,640.00
2022-12-23T00:38:51.688Z,639.00
2022-12-23T00:39:54.953Z,635.00
2022-12-23T00:40:51.636Z,636.00
2022-12-23T00:41:51.628Z,636.00
2022-12-23T00:42:51.604Z,639.00
2022-12-23T00:43:51.597Z,642.00
2022-12-23T00:44:51.577Z,642.00
2022-12-23T00:46:51.587Z,645.00
2022-12-23T00:47:51.569Z,643.00
2022-12-23T00:48:51.514Z,646.00
2022-12-23T00:49:51.527Z,647.00
2022-12-23T00:50:51.491Z,649.00
2022-12-23T00:51:51.467Z,649.00
2022-12-23T00:52:51.449Z,647.00
2022-12-23T00:53:51.435Z,650.00
2022-12-23T00:54:51.427Z,653.00
2022-12-23T00:55:51.411Z,650.00
2022-12-23T00:56:51.386Z,650.00
2022-12-23T00:57:51.482Z,648.00
2022-12-23T00:58:51.413Z,650.00
2022-12-23T00:59:51.345Z,650.00
2022-12-23T01:00:51.345Z,651.00
2022-12-23T01:01:51.475Z,651.00
2022-12-23T01:02:51.461Z,649.00
2022-12-23T01:03:51.264Z,648.00
2022-12-23T01:04:51.232Z,647.00
2022-12-23T01:05:51.226Z,644.00
2022-12-23T01:06:51.207Z,644.00
2022-12-23T01:07:51.198Z,644.00
2022-12-23T01:08:51.172Z,642.00
2022-12-23T01:09:51.147Z,643.00
2022-12-23T01:10:51.135Z,644.00
2022-12-23T01:11:51.105Z,645.00
2022-12-23T01:12:51.083Z,645.00
2022-12-23T01:13:51.067Z,647.00
2022-12-23T01:14:51.045Z,646.00
2022-12-23T01:15:51.011Z,645.00
2022-12-23T01:16:51.008Z,646.00
2022-12-23T01:17:50.978Z,647.00
2022-12-23T01:18:50.947Z,648.00
2022-12-23T01:19:50.952Z,648.00
2022-12-23T01:20:50.924Z,646.00
2022-12-23T01:21:50.906Z,645.00
2022-12-23T01:22:50.891Z,644.00
2022-12-23T01:23:50.872Z,645.00
2022-12-23T01:24:50.823Z,645.00
2022-12-23T01:25:50.804Z,645.00
2022-12-23T01:26:50.808Z,645.00
2022-12-23T01:27:50.799Z,644.00
2022-12-23T01:28:50.741Z,642.00
2022-12-23T01:29:50.739Z,644.00
2022-12-23T01:30:50.712Z,643.00
2022-12-23T01:31:50.704Z,646.00
2022-12-23T01:32:51.121Z,644.00
2022-12-23T01:33:50.650Z,641.00
2022-12-23T01:34:50.640Z,639.00
2022-12-23T01:35:50.626Z,638.00
2022-12-23T01:36:50.649Z,637.00
2022-12-23T01:37:50.621Z,639.00
2022-12-23T01:38:50.579Z,639.00
2022-12-23T01:39:50.569Z,637.00
2022-12-23T01:40:50.571Z,635.00
2022-12-23T01:41:50.536Z,635.00
2022-12-23T01:42:50.591Z,633.00
2022-12-23T01:43:50.537Z,635.00
2022-12-23T01:44:50.516Z,631.00
2022-12-23T01:45:50.509Z,633.00
2022-12-23T01:46:50.476Z,636.00
2022-12-23T01:47:50.534Z,637.00
2022-12-23T01:48:50.467Z,635.00
2022-12-23T01:49:50.451Z,631.00
2022-12-23T01:50:50.427Z,633.00
2022-12-23T01:51:50.413Z,633.00
2022-12-23T01:52:50.443Z,636.00
2022-12-23T01:53:50.412Z,634.00
2022-12-23T01:54:50.397Z,638.00
2022-12-23T01:55:50.384Z,639.00
2022-12-23T01:56:50.363Z,641.00
2022-12-23T01:57:50.363Z,639.00
2022-12-23T01:58:50.323Z,638.00
2022-12-23T01:59:50.325Z,638.00
2022-12-23T02:00:50.344Z,638.00
2022-12-23T02:01:50.428Z,638.00
2022-12-23T02:02:50.376Z,638.00
2022-12-23T02:03:50.262Z,637.00
2022-12-23T02:04:50.261Z,635.00
2022-12-23T02:05:50.235Z,631.00
2022-12-23T02:06:50.223Z,629.00
2022-12-23T02:07:50.212Z,627.00
2022-12-23T02:08:50.624Z,631.00
2022-12-23T02:09:50.192Z,628.00
2022-12-23T02:10:50.159Z,628.00
2022-12-23T02:11:50.166Z,628.00
2022-12-23T02:12:50.152Z,628.00
2022-12-23T02:13:50.133Z,627.00
2022-12-23T02:14:50.108Z,627.00
2022-12-23T08:11:43.346Z,676.00
2022-12-23T08:49:43.942Z,814.00
2022-12-23T10:17:44.576Z,889.00
2022-12-23T10:18:44.545Z,885.00
2022-12-23T10:19:44.565Z,878.00
2022-12-23T10:20:44.513Z,876.00
2022-12-23T10:21:47.491Z,870.00
2022-12-23T10:22:45.308Z,861.00
2022-12-23T10:23:44.389Z,855.00
2022-12-23T10:24:44.391Z,852.00
2022-12-23T10:25:44.362Z,842.00
2022-12-23T10:26:44.341Z,836.00
2022-12-23T10:27:44.313Z,829.00
2022-12-23T10:28:44.284Z,827.00
2022-12-23T10:29:44.275Z,821.00
2022-12-23T10:31:11.061Z,818.00
2022-12-23T10:31:45.277Z,812.00
2022-12-23T10:32:44.238Z,805.00
2022-12-23T10:33:44.218Z,800.00
2022-12-23T10:34:44.242Z,802.00
2022-12-23T10:35:44.161Z,798.00
2022-12-23T10:36:44.164Z,796.00
2022-12-23T10:37:44.066Z,797.00
2022-12-23T10:38:44.062Z,792.00
2022-12-23T10:39:44.036Z,789.00
2022-12-23T10:40:43.980Z,782.00
2022-12-23T10:41:43.944Z,780.00
2022-12-23T10:42:43.916Z,775.00
2022-12-23T10:43:43.883Z,772.00
2022-12-23T10:44:43.886Z,770.00
2022-12-23T10:45:43.846Z,856.00
2022-12-23T10:46:43.891Z,864.00
2022-12-23T10:47:43.820Z,877.00
2022-12-23T10:48:43.781Z,978.00
2022-12-23T10:49:43.778Z,981.00
2022-12-23T10:50:43.746Z,983.00
2022-12-23T10:51:43.718Z,981.00
2022-12-23T10:52:43.688Z,980.00
2022-12-23T10:53:43.652Z,980.00
2022-12-23T10:54:43.659Z,975.00
2022-12-23T10:55:43.592Z,967.00
2022-12-23T10:56:43.596Z,961.00
2022-12-23T10:57:43.576Z,952.00
2022-12-23T10:58:43.522Z,942.00
2022-12-23T10:59:43.495Z,933.00
2022-12-23T11:00:43.555Z,921.00
2022-12-23T11:01:43.581Z,913.00
2022-12-23T11:02:43.465Z,904.00
2022-12-23T11:03:43.503Z,898.00
2022-12-23T11:04:43.337Z,893.00
2022-12-23T11:05:43.331Z,887.00
2022-12-23T11:06:43.290Z,884.00
2022-12-23T11:07:45.144Z,880.00
2022-12-23T11:08:43.383Z,872.00
2022-12-23T11:09:43.344Z,869.00
2022-12-23T11:10:43.309Z,857.00
2022-12-23T11:11:43.290Z,852.00
2022-12-23T11:12:43.232Z,846.00
2022-12-23T11:13:43.204Z,848.00
2022-12-23T11:14:43.168Z,845.00
2022-12-23T11:15:43.229Z,844.00
2022-12-23T11:16:43.231Z,841.00
2022-12-23T11:17:43.218Z,836.00
2022-12-23T11:18:43.277Z,829.00
2022-12-23T11:19:43.272Z,824.00
2022-12-23T11:20:43.314Z,820.00
2022-12-23T11:21:43.356Z,818.00
2022-12-23T11:22:43.370Z,811.00
2022-12-23T11:23:43.400Z,811.00
2022-12-23T11:24:43.574Z,810.00
2022-12-23T11:25:43.438Z,807.00
2022-12-23T11:26:43.507Z,804.00
2022-12-23T11:27:43.508Z,804.00
2022-12-23T11:28:43.564Z,802.00
2022-12-23T11:29:43.570Z,804.00
2022-12-23T11:30:43.583Z,807.00
2022-12-23T11:31:43.698Z,808.00
2022-12-23T11:32:43.638Z,810.00
2022-12-23T11:33:43.693Z,810.00
2022-12-23T11:34:43.709Z,810.00
2022-12-23T11:35:43.757Z,810.00
2022-12-23T11:36:43.695Z,812.00
2022-12-23T11:37:43.686Z,810.00
2022-12-23T11:38:43.656Z,808.00
2022-12-23T11:39:43.609Z,806.00
2022-12-23T11:40:43.601Z,809.00
2022-12-23T11:41:43.588Z,810.00
2022-12-23T11:42:43.551Z,811.00
2022-12-23T11:43:43.500Z,810.00
2022-12-23T11:44:43.486Z,809.00
2022-12-23T11:45:43.517Z,807.00
2022-12-23T11:46:43.424Z,804.00
2022-12-23T11:47:43.388Z,800.00
2022-12-23T11:48:43.357Z,797.00
2022-12-23T11:49:43.326Z,794.00
2022-12-23T11:50:43.307Z,788.00
2022-12-23T11:51:43.277Z,786.00
2022-12-23T11:52:43.271Z,781.00
2022-12-23T11:53:43.226Z,778.00
2022-12-23T11:54:43.213Z,771.00
2022-12-23T11:55:43.191Z,768.00
2022-12-23T11:56:43.171Z,762.00
2022-12-23T11:57:43.139Z,757.00
2022-12-23T11:58:43.110Z,755.00
2022-12-23T11:59:43.080Z,754.00
2022-12-23T12:00:43.056Z,755.00
2022-12-23T12:01:43.006Z,755.00
2022-12-23T12:02:43.093Z,753.00
2022-12-23T12:03:43.066Z,753.00
2022-12-23T12:04:42.951Z,752.00
2022-12-23T12:05:42.893Z,750.00
2022-12-23T12:06:42.893Z,750.00
2022-12-23T12:07:42.826Z,749.00
2022-12-23T12:08:42.803Z,749.00
2022-12-23T12:09:42.783Z,750.00
2022-12-23T12:10:42.755Z,749.00
2022-12-23T12:11:42.717Z,749.00
2022-12-23T12:12:42.694Z,751.00
2022-12-23T12:13:42.654Z,747.00
2022-12-23T12:14:42.663Z,746.00
2022-12-23T12:15:42.617Z,751.00
2022-12-23T12:16:42.649Z,750.00
2022-12-23T12:17:42.561Z,749.00
2022-12-23T12:18:42.530Z,747.00
2022-12-23T12:19:42.487Z,750.00
2022-12-23T12:20:42.483Z,750.00
2022-12-23T12:21:42.467Z,750.00
2022-12-23T12:22:42.407Z,750.00
2022-12-23T12:23:42.380Z,751.00
2022-12-23T12:24:42.362Z,753.00
2022-12-23T12:25:42.308Z,757.00
2022-12-23T12:26:42.294Z,758.00
2022-12-23T12:27:42.255Z,759.00
2022-12-23T12:28:42.277Z,763.00
2022-12-23T12:29:42.210Z,773.00
2022-12-23T12:30:42.304Z,781.00
2022-12-23T12:31:42.168Z,783.00
2022-12-23T12:32:42.139Z,787.00
2022-12-23T12:33:42.131Z,790.00
2022-12-23T12:34:42.089Z,798.00
2022-12-23T12:35:42.084Z,803.00
2022-12-23T12:36:42.075Z,814.00
2022-12-23T12:37:42.000Z,820.00
2022-12-23T12:38:41.997Z,822.00
2022-12-23T12:39:41.961Z,829.00
2022-12-23T12:40:41.927Z,831.00
2022-12-23T12:41:41.923Z,834.00
2022-12-23T12:42:41.881Z,837.00
2022-12-23T12:43:42.850Z,842.00
2022-12-23T12:44:41.844Z,841.00
2022-12-23T12:45:41.827Z,847.00
2022-12-23T12:46:41.749Z,847.00
2022-12-23T12:48:02.330Z,851.00
2022-12-23T12:48:42.693Z,854.00
2022-12-23T12:49:41.666Z,860.00
2022-12-23T12:50:41.649Z,861.00
2022-12-23T12:51:41.627Z,865.00
2022-12-23T12:52:41.553Z,866.00
2022-12-23T12:53:41.549Z,867.00
2022-12-23T12:54:41.512Z,869.00
2022-12-23T12:55:41.530Z,873.00
2022-12-23T12:56:41.529Z,876.00
2022-12-23T12:57:41.405Z,878.00
2022-12-23T12:58:41.387Z,881.00
2022-12-23T12:59:41.339Z,884.00
2022-12-23T13:00:41.328Z,889.00
2022-12-23T13:01:41.406Z,889.00
2022-12-23T13:02:41.486Z,891.00
2022-12-23T13:03:41.232Z,893.00
2022-12-23T13:04:41.188Z,901.00
2022-12-23T13:05:41.162Z,903.00
2022-12-23T13:06:41.132Z,906.00
2022-12-23T13:07:41.086Z,907.00
2022-12-23T13:08:41.057Z,909.00
2022-12-23T13:09:41.036Z,913.00
2022-12-23T13:10:40.999Z,912.00
2022-12-23T13:11:40.975Z,917.00
2022-12-23T13:12:40.937Z,925.00
2022-12-23T13:13:40.914Z,921.00
2022-12-23T13:14:40.866Z,925.00
2022-12-23T13:15:40.861Z,930.00
2022-12-23T13:16:40.897Z,929.00
2022-12-23T13:17:40.782Z,931.00
2022-12-23T13:18:40.744Z,933.00
2022-12-23T13:19:40.725Z,937.00
2022-12-23T13:20:40.704Z,936.00
2022-12-23T13:21:40.671Z,940.00
2022-12-23T13:22:40.648Z,943.00
2022-12-23T13:23:44.185Z,949.00
2022-12-23T13:24:40.567Z,951.00
2022-12-23T13:25:40.551Z,956.00
2022-12-23T13:26:40.535Z,961.00
2022-12-23T13:27:40.502Z,958.00
2022-12-23T13:28:40.474Z,958.00
2022-12-23T13:29:40.448Z,956.00
2022-12-23T13:30:40.450Z,956.00
2022-12-23T13:31:40.381Z,956.00
2022-12-23T13:32:40.368Z,958.00
2022-12-23T13:33:40.363Z,962.00
2022-12-23T13:34:40.283Z,964.00
2022-12-23T13:35:40.241Z,965.00
2022-12-23T13:36:40.317Z,966.00
2022-12-23T13:37:40.198Z,965.00
2022-12-23T13:38:40.416Z,969.00
2022-12-23T13:39:40.166Z,970.00
2022-12-23T13:40:40.117Z,969.00
2022-12-23T13:41:40.098Z,970.00
2022-12-23T13:42:40.067Z,971.00
2022-12-23T13:43:40.034Z,970.00
2022-12-23T13:44:39.995Z,972.00
2022-12-23T13:45:39.980Z,974.00
2022-12-23T13:46:39.964Z,976.00
2022-12-23T13:47:39.902Z,978.00
2022-12-23T13:48:39.900Z,980.00
2022-12-23T13:49:39.863Z,983.00
2022-12-23T13:50:39.829Z,985.00
2022-12-23T13:51:39.802Z,986.00
2022-12-23T13:52:39.803Z,990.00
2022-12-23T13:53:39.767Z,991.00
2022-12-23T13:54:39.755Z,995.00
2022-12-23T13:55:39.717Z,994.00
2022-12-23T13:56:39.706Z,996.00
2022-12-23T13:57:39.691Z,998.00
2022-12-23T13:58:39.684Z,995.00
2022-12-23T13:59:39.667Z,997.00
2022-12-23T14:00:39.654Z,993.00
2022-12-23T14:01:39.740Z,991.00
2022-12-23T14:02:39.639Z,992.00
2022-12-23T14:03:39.569Z,994.00
2022-12-23T14:04:39.578Z,992.00
2022-12-23T14:05:39.548Z,989.00
2022-12-23T14:06:39.521Z,991.00
2022-12-23T14:07:39.509Z,995.00
2022-12-23T14:08:39.497Z,996.00
2022-12-23T14:09:39.473Z,998.00
2022-12-23T14:10:39.422Z,998.00
2022-12-23T14:11:39.394Z,998.00
2022-12-23T14:12:39.401Z,995.00
2022-12-23T14:13:39.358Z,994.00
2022-12-23T14:14:39.339Z,996.00
2022-12-23T14:15:39.338Z,995.00
2022-12-23T14:16:39.336Z,993.00
2022-12-23T14:17:39.249Z,992.00
2022-12-23T14:18:39.228Z,993.00
2022-12-23T14:19:39.236Z,992.00
2022-12-23T14:20:39.198Z,992.00
2022-12-23T14:21:39.172Z,996.00
2022-12-23T14:22:39.179Z,994.00
2022-12-23T14:23:39.142Z,992.00
2022-12-23T14:24:39.100Z,996.00
2022-12-23T14:25:39.069Z,998.00
2022-12-23T14:26:39.058Z,997.00
2022-12-23T14:27:39.040Z,995.00
2022-12-23T14:28:39.016Z,996.00
2022-12-23T14:29:38.978Z,995.00
2022-12-23T14:30:38.947Z,996.00
2022-12-23T14:31:38.967Z,999.00
2022-12-23T14:32:38.907Z,1003.00
2022-12-23T14:33:38.886Z,1002.00
2022-12-23T14:34:38.921Z,1004.00
2022-12-23T14:35:42.590Z,1002.00
2022-12-23T14:36:38.897Z,1003.00
2022-12-23T14:37:38.796Z,999.00
2022-12-23T14:38:38.774Z,999.00
2022-12-23T14:39:38.766Z,997.00
2022-12-23T14:40:38.734Z,998.00
2022-12-23T14:41:38.757Z,998.00
2022-12-23T14:42:38.661Z,996.00
2022-12-23T14:43:38.627Z,994.00
2022-12-23T14:44:38.643Z,991.00
2022-12-23T14:45:38.587Z,988.00
2022-12-23T14:46:38.604Z,986.00
2022-12-23T14:47:40.569Z,987.00
2022-12-23T14:48:38.499Z,986.00
2022-12-23T14:49:40.415Z,988.00
2022-12-23T14:50:38.483Z,986.00
2022-12-23T14:51:38.441Z,987.00
2022-12-23T14:52:44.497Z,988.00
2022-12-23T14:53:39.415Z,991.00
2022-12-23T14:54:38.389Z,988.00
2022-12-23T14:55:38.369Z,986.00
2022-12-23T14:56:38.359Z,988.00
2022-12-23T14:57:38.314Z,988.00
2022-12-23T14:58:38.285Z,989.00
2022-12-23T14:59:38.286Z,986.00
2022-12-23T15:00:38.256Z,982.00
2022-12-23T15:01:38.312Z,986.00
2022-12-23T15:02:38.263Z,985.00
2022-12-23T15:03:38.156Z,987.00
2022-12-23T15:04:38.151Z,988.00
2022-12-23T15:05:38.119Z,992.00
2022-12-23T15:06:38.095Z,991.00
2022-12-23T15:07:38.057Z,988.00
2022-12-23T15:08:38.035Z,988.00
2022-12-23T15:09:38.012Z,988.00
2022-12-23T15:10:37.986Z,986.00
2022-12-23T15:11:37.966Z,983.00
2022-12-23T15:12:37.937Z,984.00
2022-12-23T15:13:37.905Z,986.00
2022-12-23T15:14:37.890Z,989.00
2022-12-23T15:15:37.852Z,992.00
2022-12-23T15:16:37.943Z,991.00
2022-12-23T15:17:37.809Z,988.00
2022-12-23T15:18:37.801Z,985.00
2022-12-23T15:19:37.756Z,982.00
2022-12-23T15:20:37.716Z,982.00
2022-12-23T15:21:37.716Z,986.00
2022-12-23T15:22:37.673Z,988.00
2022-12-23T15:23:37.652Z,986.00
2022-12-23T15:24:37.624Z,986.00
2022-12-23T15:25:37.598Z,987.00
2022-12-23T15:26:37.963Z,984.00
2022-12-23T15:27:37.570Z,985.00
2022-12-23T15:28:37.564Z,984.00
2022-12-23T15:29:37.521Z,983.00
2022-12-23T15:30:37.478Z,985.00
2022-12-23T15:31:37.487Z,986.00
2022-12-23T15:32:37.432Z,986.00
2022-12-23T15:34:02.800Z,982.00
2022-12-23T15:34:38.371Z,984.00
2022-12-23T15:35:37.350Z,984.00
2022-12-23T15:36:37.518Z,986.00
2022-12-23T15:37:37.290Z,985.00
2022-12-23T15:38:37.271Z,987.00
2022-12-23T15:39:37.274Z,987.00
2022-12-23T15:40:37.227Z,986.00
2022-12-23T15:41:37.190Z,984.00
2022-12-23T15:42:37.189Z,981.00
2022-12-23T15:43:37.130Z,968.00
2022-12-23T15:44:37.117Z,962.00
2022-12-23T15:45:37.373Z,954.00
2022-12-23T15:46:37.099Z,944.00
2022-12-23T15:47:37.026Z,933.00
2022-12-23T15:48:36.993Z,922.00
2022-12-23T15:49:36.964Z,920.00
2022-12-23T15:50:36.934Z,915.00
2022-12-23T15:52:05.653Z,910.00
2022-12-23T15:52:36.890Z,905.00
2022-12-23T15:53:36.851Z,893.00
2022-12-23T15:54:36.873Z,884.00
2022-12-23T15:55:36.801Z,875.00
2022-12-23T15:56:36.767Z,868.00
2022-12-23T15:57:36.752Z,866.00
2022-12-23T15:58:37.737Z,861.00
2022-12-23T15:59:36.694Z,854.00
2022-12-23T16:00:36.669Z,849.00
2022-12-23T16:01:36.691Z,843.00
2022-12-23T16:03:37.757Z,830.00
2022-12-23T16:04:36.644Z,828.00
2022-12-23T16:05:36.570Z,822.00
2022-12-23T16:06:36.511Z,822.00
2022-12-23T16:07:36.468Z,824.00
2022-12-23T16:08:36.436Z,820.00
2022-12-23T16:09:36.406Z,814.00
2022-12-23T16:10:36.382Z,816.00
2022-12-23T16:11:36.383Z,818.00
2022-12-23T16:12:36.330Z,818.00
2022-12-23T16:13:40.220Z,816.00
2022-12-23T16:14:37.293Z,815.00
2022-12-23T16:15:36.256Z,818.00
2022-12-23T16:16:36.260Z,821.00
2022-12-23T16:17:36.205Z,824.00
2022-12-23T16:18:36.192Z,828.00
2022-12-23T16:19:36.168Z,831.00
2022-12-23T16:20:36.187Z,831.00
2022-12-23T16:21:36.107Z,832.00
2022-12-23T16:22:36.064Z,837.00
2022-12-23T16:23:36.025Z,838.00
2022-12-23T16:24:35.995Z,839.00
2022-12-23T16:25:36.031Z,839.00
2022-12-23T16:26:35.936Z,842.00
2022-12-23T16:27:35.904Z,846.00
2022-12-23T16:28:35.878Z,845.00
2022-12-23T16:29:35.849Z,844.00
2022-12-23T16:30:35.831Z,844.00
2022-12-23T16:31:35.822Z,849.00
2022-12-23T16:32:35.784Z,851.00
2022-12-23T16:33:36.423Z,853.00
2022-12-23T16:34:35.710Z,852.00
2022-12-23T16:35:35.687Z,852.00
2022-12-23T16:36:35.815Z,851.00
2022-12-23T16:37:35.667Z,854.00
2022-12-23T16:38:35.642Z,856.00
2022-12-23T16:39:35.647Z,856.00
2022-12-23T16:40:35.604Z,856.00
2022-12-23T16:41:35.570Z,857.00
2022-12-23T16:42:35.529Z,854.00
2022-12-23T16:43:35.528Z,857.00
2022-12-23T16:44:35.459Z,856.00
2022-12-23T16:45:35.506Z,856.00
2022-12-23T16:46:35.409Z,850.00
2022-12-23T16:47:35.379Z,851.00
2022-12-23T16:48:35.362Z,850.00
2022-12-23T16:49:35.324Z,852.00
2022-12-23T16:50:35.299Z,853.00
2022-12-23T16:51:35.279Z,859.00
2022-12-23T16:52:35.246Z,858.00
2022-12-23T16:53:35.219Z,853.00
2022-12-23T16:54:35.200Z,853.00
2022-12-23T16:55:35.176Z,855.00
2022-12-23T16:56:35.159Z,857.00
2022-12-23T16:57:35.109Z,853.00
2022-12-23T16:58:35.072Z,854.00
2022-12-23T16:59:35.059Z,855.00
2022-12-23T17:00:35.055Z,856.00
2022-12-23T17:01:35.156Z,855.00
2022-12-23T17:02:35.055Z,853.00
2022-12-23T17:03:34.977Z,852.00
2022-12-23T17:04:34.941Z,851.00
2022-12-23T17:05:34.915Z,849.00
2022-12-23T17:06:34.880Z,852.00
2022-12-23T17:07:38.680Z,851.00
2022-12-23T17:08:35.854Z,852.00
2022-12-23T17:09:34.808Z,855.00
2022-12-23T17:10:34.779Z,853.00
2022-12-23T17:11:34.749Z,856.00
2022-12-23T17:12:34.735Z,856.00
2022-12-23T17:13:34.693Z,855.00
2022-12-23T17:14:34.675Z,854.00
2022-12-23T17:15:34.652Z,853.00
2022-12-23T17:16:34.724Z,849.00
2022-12-23T17:17:34.630Z,854.00
2022-12-23T17:18:34.619Z,855.00
2022-12-23T17:19:34.564Z,857.00
2022-12-23T17:20:34.544Z,858.00
2022-12-23T17:21:34.519Z,859.00
2022-12-23T17:22:34.494Z,857.00
2022-12-23T17:23:34.468Z,857.00
2022-12-23T17:24:34.445Z,857.00
2022-12-23T17:25:34.395Z,855.00
2022-12-23T17:26:34.378Z,855.00
2022-12-23T17:27:34.354Z,857.00
2022-12-23T17:28:34.328Z,855.00
2022-12-23T17:29:34.308Z,854.00
2022-12-23T17:30:34.271Z,851.00
2022-12-23T17:31:34.354Z,850.00
2022-12-23T17:32:34.330Z,853.00
2022-12-23T17:33:34.215Z,851.00
2022-12-23T17:34:34.203Z,851.00
2022-12-23T17:35:34.189Z,852.00
2022-12-23T17:36:34.959Z,853.00
2022-12-23T17:37:34.147Z,852.00
2022-12-23T17:38:34.104Z,852.00
2022-12-23T17:39:34.103Z,856.00
2022-12-23T17:40:34.043Z,851.00
2022-12-23T17:41:34.025Z,848.00
2022-12-23T17:42:34.006Z,845.00
2022-12-23T17:43:33.992Z,844.00
2022-12-23T17:44:33.954Z,839.00
2022-12-23T17:45:33.985Z,838.00
2022-12-23T17:46:33.989Z,838.00
2022-12-23T17:47:33.871Z,837.00
2022-12-23T17:48:33.838Z,833.00
2022-12-23T17:49:33.839Z,836.00
2022-12-23T17:50:33.806Z,838.00
2022-12-23T17:51:33.785Z,838.00
2022-12-23T17:52:33.756Z,836.00
2022-12-23T17:53:33.727Z,837.00
2022-12-23T17:54:33.692Z,837.00
2022-12-23T17:55:33.691Z,835.00
2022-12-23T17:56:33.651Z,836.00
2022-12-23T17:57:33.613Z,837.00
2022-12-23T17:58:33.619Z,835.00
2022-12-23T17:59:33.554Z,837.00
2022-12-23T18:00:34.616Z,835.00
2022-12-23T18:01:33.551Z,834.00
2022-12-23T18:02:33.502Z,836.00
2022-12-23T18:03:33.442Z,838.00
2022-12-23T18:04:33.435Z,841.00
2022-12-23T18:05:33.406Z,838.00
2022-12-23T18:06:33.361Z,836.00
2022-12-23T18:07:33.346Z,836.00
2022-12-23T18:08:33.322Z,831.00
2022-12-23T18:09:33.297Z,828.00
2022-12-23T18:10:33.259Z,825.00
2022-12-23T18:11:33.261Z,822.00
2022-12-23T18:12:33.219Z,820.00
2022-12-23T18:13:33.184Z,820.00
2022-12-23T18:14:33.172Z,821.00
2022-12-23T18:15:33.149Z,819.00
2022-12-23T18:16:33.152Z,817.00
2022-12-23T18:17:33.087Z,824.00
2022-12-23T18:18:43.710Z,823.00
2022-12-23T18:19:34.057Z,821.00
2022-12-23T18:20:33.034Z,819.00
2022-12-23T18:21:33.018Z,820.00
2022-12-23T18:22:33.011Z,818.00
2022-12-23T18:23:33.094Z,816.00
2022-12-23T18:24:33.018Z,813.00
2022-12-23T18:25:32.950Z,815.00
2022-12-23T18:26:32.912Z,816.00
2022-12-23T18:27:32.901Z,817.00
2022-12-23T18:28:32.893Z,819.00
2022-12-23T18:29:32.862Z,816.00
2022-12-23T18:30:32.879Z,815.00
2022-12-23T18:31:33.070Z,815.00
2022-12-23T18:32:32.778Z,816.00
2022-12-23T18:33:32.767Z,815.00
2022-12-23T18:34:32.747Z,811.00
2022-12-23T18:35:32.722Z,811.00
2022-12-23T18:36:32.718Z,811.00
2022-12-23T18:37:32.672Z,807.00
2022-12-23T18:38:32.658Z,805.00
2022-12-23T18:39:32.640Z,802.00
2022-12-23T18:40:33.278Z,800.00
2022-12-23T18:41:32.605Z,801.00
2022-12-23T18:42:32.608Z,802.00
2022-12-23T18:43:32.614Z,800.00
2022-12-23T18:44:32.583Z,800.00
2022-12-23T18:45:32.528Z,799.00
2022-12-23T18:46:32.591Z,800.00
2022-12-23T18:47:32.464Z,801.00
2022-12-23T18:48:32.450Z,800.00
2022-12-23T18:49:32.438Z,800.00
2022-12-23T18:50:32.407Z,799.00
2022-12-23T18:51:32.415Z,801.00
2022-12-23T18:52:32.389Z,803.00
2022-12-23T18:53:32.363Z,800.00
2022-12-23T18:54:32.304Z,802.00
2022-12-23T18:55:32.281Z,801.00
2022-12-23T18:56:32.281Z,800.00
2022-12-23T18:57:32.228Z,799.00
2022-12-23T18:58:32.198Z,796.00
2022-12-23T18:59:32.166Z,800.00
2022-12-23T19:00:32.142Z,802.00
2022-12-23T19:01:32.181Z,803.00
2022-12-23T19:02:32.204Z,802.00
2022-12-23T19:03:32.085Z,801.00
2022-12-23T19:04:32.096Z,803.00
2022-12-23T19:05:32.092Z,800.00
2022-12-23T19:06:32.033Z,798.00
2022-12-23T19:07:32.011Z,798.00
2022-12-23T19:08:31.985Z,797.00
2022-12-23T19:09:31.969Z,797.00
2022-12-23T19:10:31.928Z,796.00
2022-12-23T19:11:31.898Z,793.00
2022-12-23T19:12:31.876Z,791.00
2022-12-23T19:13:31.871Z,793.00
2022-12-23T19:14:31.825Z,791.00
2022-12-23T19:15:31.843Z,790.00
2022-12-23T19:16:31.858Z,789.00
2022-12-23T19:17:31.776Z,790.00
2022-12-23T19:18:31.738Z,789.00
2022-12-23T19:19:31.727Z,790.00
2022-12-23T19:20:31.690Z,791.00
2022-12-23T19:21:31.628Z,791.00
2022-12-23T19:22:31.636Z,791.00
2022-12-23T19:23:31.569Z,791.00
2022-12-23T19:24:31.553Z,786.00
2022-12-23T19:25:31.548Z,785.00
2022-12-23T19:26:31.485Z,785.00
2022-12-23T19:27:31.463Z,785.00
2022-12-23T19:28:31.472Z,785.00
2022-12-23T19:29:31.425Z,784.00
2022-12-23T19:30:31.404Z,782.00
2022-12-23T19:31:31.410Z,784.00
2022-12-23T19:32:31.349Z,784.00
2022-12-23T19:33:31.297Z,781.00
2022-12-23T19:34:31.256Z,782.00
2022-12-23T19:35:31.248Z,783.00
2022-12-23T19:36:31.283Z,783.00
2022-12-23T19:37:31.209Z,778.00
2022-12-23T19:38:31.133Z,776.00
2022-12-23T19:39:31.119Z,775.00
2022-12-23T19:40:31.084Z,775.00
2022-12-23T19:41:31.044Z,777.00
2022-12-23T19:42:31.956Z,777.00
2022-12-23T19:43:30.992Z,774.00
2022-12-23T19:44:30.966Z,773.00
2022-12-23T19:45:30.937Z,773.00
2022-12-23T19:46:30.939Z,771.00
2022-12-23T19:47:30.898Z,776.00
2022-12-23T19:48:30.871Z,774.00
2022-12-23T19:49:30.842Z,771.00
2022-12-23T19:50:30.810Z,771.00
2022-12-23T19:51:30.810Z,767.00
2022-12-23T19:52:30.764Z,767.00
2022-12-23T19:53:30.737Z,768.00
2022-12-23T19:54:30.703Z,770.00
2022-12-23T19:55:30.704Z,771.00
2022-12-23T19:56:30.674Z,767.00
2022-12-23T19:57:30.640Z,767.00
2022-12-23T19:58:30.606Z,768.00
2022-12-23T19:59:30.622Z,768.00
2022-12-23T20:00:30.586Z,762.00
2022-12-23T20:01:30.587Z,761.00
2022-12-23T20:02:30.643Z,762.00
2022-12-23T20:03:30.570Z,762.00
2022-12-23T20:04:30.511Z,763.00
2022-12-23T20:05:30.516Z,765.00
2022-12-23T20:06:30.447Z,763.00
2022-12-23T20:07:30.414Z,761.00
2022-12-23T20:08:30.384Z,761.00
2022-12-23T20:09:30.387Z,762.00
2022-12-23T20:10:30.336Z,759.00
2022-12-23T20:11:30.383Z,754.00
2022-12-23T20:12:30.286Z,754.00
2022-12-23T20:13:30.276Z,755.00
2022-12-23T20:14:33.843Z,756.00
2022-12-23T20:15:30.311Z,759.00
2022-12-23T20:16:30.247Z,755.00
2022-12-23T20:17:30.164Z,758.00
2022-12-23T20:18:30.158Z,757.00
2022-12-23T20:19:30.151Z,754.00
2022-12-23T20:20:30.112Z,756.00
2022-12-23T20:21:30.085Z,755.00
2022-12-23T20:22:30.070Z,757.00
2022-12-23T20:23:30.051Z,754.00
2022-12-23T20:24:30.045Z,754.00
2022-12-23T20:25:30.044Z,753.00
2022-12-23T20:26:30.026Z,752.00
2022-12-23T20:27:29.965Z,755.00
2022-12-23T20:28:29.939Z,754.00
2022-12-23T20:29:30.030Z,756.00
2022-12-23T20:30:29.907Z,752.00
2022-12-23T20:31:29.994Z,748.00
2022-12-23T20:32:29.924Z,745.00
2022-12-23T20:33:29.847Z,746.00
2022-12-23T20:34:34.713Z,747.00
2022-12-23T20:35:30.794Z,746.00
2022-12-23T20:36:29.792Z,746.00
2022-12-23T20:37:29.752Z,743.00
2022-12-23T20:38:29.715Z,739.00
2022-12-23T20:39:29.695Z,740.00
2022-12-23T20:40:29.665Z,740.00
2022-12-23T20:41:29.650Z,740.00
2022-12-23T20:42:29.623Z,739.00
2022-12-23T20:43:29.615Z,737.00
2022-12-23T20:44:35.143Z,736.00
2022-12-23T20:45:30.980Z,735.00
2022-12-23T20:46:29.616Z,731.00
2022-12-23T20:47:29.553Z,730.00
2022-12-23T20:48:33.754Z,729.00
2022-12-23T20:49:29.524Z,729.00
2022-12-23T20:50:29.505Z,729.00
2022-12-23T20:51:29.497Z,727.00
2022-12-23T20:52:29.468Z,729.00
2022-12-23T20:53:29.456Z,733.00
2022-12-23T20:54:33.180Z,735.00
2022-12-23T20:55:29.456Z,733.00
2022-12-23T20:56:29.520Z,734.00
2022-12-23T20:57:29.407Z,734.00
2022-12-23T20:58:29.401Z,734.00